CDG weather

Charles de Gaulle International Airport
Paris, Île-de-France, France

Public forecast

Using degrees Celsius for public forecast. Weather courtesy of forecast.io.

Current aviation weather report (METAR) for Charles de Gaulle International Airport

Retrieved 2019/10/23 01:30 UTC (16 minutes ago):

LFPG 230130Z 03009KT CAVOK 11/09 Q1017 NOSIG

Aviation forecast (TAF) for Charles de Gaulle International Airport

Retrieved 2019-10-23 00:26 UTC (1 hour ago):

TAF LFPG 222300Z 2300/2406 04008KT CAVOK TX17/2315Z TN08/2306Z PROB30 TEMPO 2304/2310 BKN005 PROB30 TEMPO 2322/2401 4500 BR BECMG 2401/2403 16010KT